Archival Weather

Chicago O'Hare International

Chicago, Illinois (KORD)

Report from: Saturday, March 18, 2023 12:57 PM CDT
Current time: Monday, March 4, 2024 7:42 PM CST

Current weather – Weather history – Daily summaries
Weather forecast

Present weatherLight snow
Temperature-6.1°C (21.0°F)
Wind chill-14.6°C (5.7°F)
Dew point-13.3°C (8.1°F)
Winds 17 kts (8.7 m/s, 19.6 mph) West (270°)
Wind gusts 23 kts (11.8 m/s, 26.5 mph)
Visibility2.5 mi. (4 km)
Clouds Scattered clouds 2,400 ft. (732 m)
Ceiling: Broken clouds 3,100 ft. (945 m)
Overcast 4,200 ft. (1,280 m)
Altimeter30.03 in.Hg (1017 mB)
PrecipitiationTrace
Relative humidity57 %
Density altitude-2,701 ft. (-823 m)
Remarks Automated weather observing station with precipitation discriminator
Visibility
Flight conditions Instrument Meteorological Conditions
Raw dataKORD 181757Z 27017G23KT 2 1/2SM -SN SCT024 BKN031 OVC042 M06/M13 A3003 RMK AO2 VIS 2V3 P0000 T10611133
An error has occurred. This application may no longer respond until reloaded. Reload 🗙